sensor_id;sensor_type;location;lat;lon;timestamp;pressure;altitude;pressure_sealevel;temperature;humidity
69622;BME280;56841;55.964;37.674;2023-03-04T00:00:30;97847.16;;;-0.31;76.18
69622;BME280;56841;55.964;37.674;2023-03-04T00:02:56;97839.56;;;-0.42;76.55
69622;BME280;56841;55.964;37.674;2023-03-04T00:05:21;97845.47;;;-0.50;77.00
69622;BME280;56841;55.964;37.674;2023-03-04T00:07:47;97852.56;;;-0.62;77.38
69622;BME280;56841;55.964;37.674;2023-03-04T00:10:13;97853.00;;;-0.66;78.07
69622;BME280;56841;55.964;37.674;2023-03-04T00:12:38;97838.16;;;-0.74;78.20
69622;BME280;56841;55.964;37.674;2023-03-04T00:15:04;97837.91;;;-0.81;78.63
69622;BME280;56841;55.964;37.674;2023-03-04T00:17:30;97835.94;;;-0.69;78.43
69622;BME280;56841;55.964;37.674;2023-03-04T00:19:56;97828.88;;;-0.77;78.38
69622;BME280;56841;55.964;37.674;2023-03-04T00:22:22;97818.09;;;-0.72;78.32
69622;BME280;56841;55.964;37.674;2023-03-04T00:24:48;97815.81;;;-0.75;78.48
69622;BME280;56841;55.964;37.674;2023-03-04T00:27:13;97814.84;;;-0.84;78.72
69622;BME280;56841;55.964;37.674;2023-03-04T00:29:39;97824.25;;;-0.83;78.90
69622;BME280;56841;55.964;37.674;2023-03-04T00:32:05;97825.78;;;-0.90;79.05
69622;BME280;56841;55.964;37.674;2023-03-04T00:34:31;97835.22;;;-0.99;79.58
69622;BME280;56841;55.964;37.674;2023-03-04T00:36:56;97831.13;;;-1.11;80.02
69622;BME280;56841;55.964;37.674;2023-03-04T00:39:29;97820.22;;;-1.24;80.93
69622;BME280;56841;55.964;37.674;2023-03-04T00:41:55;97818.59;;;-1.25;81.09
69622;BME280;56841;55.964;37.674;2023-03-04T00:44:20;97813.81;;;-1.39;81.81
69622;BME280;56841;55.964;37.674;2023-03-04T00:46:46;97813.94;;;-1.41;82.40
69622;BME280;56841;55.964;37.674;2023-03-04T00:49:12;97802.91;;;-1.53;83.19
69622;BME280;56841;55.964;37.674;2023-03-04T00:51:38;97804.41;;;-1.60;83.57
69622;BME280;56841;55.964;37.674;2023-03-04T00:54:04;97807.28;;;-1.63;83.95
69622;BME280;56841;55.964;37.674;2023-03-04T00:56:29;97801.28;;;-1.73;84.69
69622;BME280;56841;55.964;37.674;2023-03-04T00:58:55;97804.28;;;-1.78;85.02
69622;BME280;56841;55.964;37.674;2023-03-04T01:01:20;97795.25;;;-1.83;85.37
69622;BME280;56841;55.964;37.674;2023-03-04T01:03:47;97801.75;;;-1.99;85.99
69622;BME280;56841;55.964;37.674;2023-03-04T01:06:12;97792.91;;;-1.96;86.38
69622;BME280;56841;55.964;37.674;2023-03-04T01:08:38;97796.59;;;-1.99;86.66
69622;BME280;56841;55.964;37.674;2023-03-04T01:11:05;97801.22;;;-2.02;87.70
69622;BME280;56841;55.964;37.674;2023-03-04T01:13:31;97790.75;;;-2.01;87.89
69622;BME280;56841;55.964;37.674;2023-03-04T01:15:57;97789.75;;;-2.09;88.99
69622;BME280;56841;55.964;37.674;2023-03-04T01:18:24;97785.28;;;-2.07;88.76
69622;BME280;56841;55.964;37.674;2023-03-04T01:20:50;97780.09;;;-2.17;89.47
69622;BME280;56841;55.964;37.674;2023-03-04T01:23:16;97777.91;;;-2.22;90.34
69622;BME280;56841;55.964;37.674;2023-03-04T01:25:41;97779.38;;;-2.19;89.85
69622;BME280;56841;55.964;37.674;2023-03-04T01:28:07;97778.16;;;-2.25;89.99
69622;BME280;56841;55.964;37.674;2023-03-04T01:30:33;97780.06;;;-2.27;90.13
69622;BME280;56841;55.964;37.674;2023-03-04T01:32:59;97765.25;;;-2.25;90.12
69622;BME280;56841;55.964;37.674;2023-03-04T01:35:24;97774.59;;;-2.33;90.61
69622;BME280;56841;55.964;37.674;2023-03-04T01:37:50;97770.91;;;-2.41;91.58
69622;BME280;56841;55.964;37.674;2023-03-04T01:40:16;97775.41;;;-2.43;92.22
69622;BME280;56841;55.964;37.674;2023-03-04T01:42:42;97765.88;;;-2.42;92.16
69622;BME280;56841;55.964;37.674;2023-03-04T01:45:12;97763.28;;;-2.42;92.57
69622;BME280;56841;55.964;37.674;2023-03-04T01:47:39;97760.81;;;-2.44;92.35
69622;BME280;56841;55.964;37.674;2023-03-04T01:50:10;97763.66;;;-2.47;93.18
69622;BME280;56841;55.964;37.674;2023-03-04T01:52:41;97766.19;;;-2.56;94.26
69622;BME280;56841;55.964;37.674;2023-03-04T01:55:15;97757.09;;;-2.60;94.53
69622;BME280;56841;55.964;37.674;2023-03-04T01:57:41;97772.84;;;-2.64;95.02
69622;BME280;56841;55.964;37.674;2023-03-04T02:02:42;97769.78;;;-2.48;94.26
69622;BME280;56841;55.964;37.674;2023-03-04T02:05:07;97763.91;;;-2.50;94.47
69622;BME280;56841;55.964;37.674;2023-03-04T02:07:34;97756.91;;;-2.38;94.13
69622;BME280;56841;55.964;37.674;2023-03-04T02:10:00;97739.75;;;-2.29;93.64
69622;BME280;56841;55.964;37.674;2023-03-04T02:12:25;97739.38;;;-2.25;93.34
69622;BME280;56841;55.964;37.674;2023-03-04T02:14:51;97733.50;;;-2.27;92.59
69622;BME280;56841;55.964;37.674;2023-03-04T02:17:22;97735.03;;;-2.24;92.81
69622;BME280;56841;55.964;37.674;2023-03-04T02:20:17;97723.47;;;-2.10;91.83
69622;BME280;56841;55.964;37.674;2023-03-04T02:25:32;97717.91;;;-2.06;91.66
69622;BME280;56841;55.964;37.674;2023-03-04T02:28:00;97718.84;;;-2.07;91.20
69622;BME280;56841;55.964;37.674;2023-03-04T02:30:26;97716.13;;;-2.15;91.65
69622;BME280;56841;55.964;37.674;2023-03-04T02:32:52;97710.28;;;-2.07;91.71
69622;BME280;56841;55.964;37.674;2023-03-04T02:35:19;97708.50;;;-2.07;91.53
69622;BME280;56841;55.964;37.674;2023-03-04T02:37:45;97703.34;;;-1.97;91.19
69622;BME280;56841;55.964;37.674;2023-03-04T02:40:29;97699.38;;;-1.92;90.47
69622;BME280;56841;55.964;37.674;2023-03-04T02:42:58;97696.25;;;-1.76;89.72
69622;BME280;56841;55.964;37.674;2023-03-04T02:45:39;97697.78;;;-1.83;89.62
69622;BME280;56841;55.964;37.674;2023-03-04T02:48:07;97696.25;;;-1.85;90.06
69622;BME280;56841;55.964;37.674;2023-03-04T02:50:37;97685.38;;;-1.89;90.16
69622;BME280;56841;55.964;37.674;2023-03-04T02:53:04;97683.22;;;-1.84;90.05
69622;BME280;56841;55.964;37.674;2023-03-04T02:55:30;97687.56;;;-1.84;89.99
69622;BME280;56841;55.964;37.674;2023-03-04T02:57:57;97673.25;;;-1.88;90.23
69622;BME280;56841;55.964;37.674;2023-03-04T03:00:23;97679.25;;;-1.78;90.14
69622;BME280;56841;55.964;37.674;2023-03-04T03:02:49;97669.56;;;-1.76;89.74
69622;BME280;56841;55.964;37.674;2023-03-04T03:05:16;97674.75;;;-1.76;89.65
69622;BME280;56841;55.964;37.674;2023-03-04T03:07:42;97672.16;;;-1.96;90.70
69622;BME280;56841;55.964;37.674;2023-03-04T03:10:09;97671.22;;;-1.85;90.85
69622;BME280;56841;55.964;37.674;2023-03-04T03:12:35;97673.53;;;-1.92;90.96
69622;BME280;56841;55.964;37.674;2023-03-04T03:15:00;97665.50;;;-1.88;90.61
69622;BME280;56841;55.964;37.674;2023-03-04T03:17:26;97661.00;;;-1.77;90.54
69622;BME280;56841;55.964;37.674;2023-03-04T03:19:52;97655.28;;;-1.80;89.79
69622;BME280;56841;55.964;37.674;2023-03-04T03:22:18;97651.63;;;-1.78;89.67
69622;BME280;56841;55.964;37.674;2023-03-04T03:24:43;97644.94;;;-1.71;89.51
69622;BME280;56841;55.964;37.674;2023-03-04T03:27:10;97644.69;;;-1.87;89.79
69622;BME280;56841;55.964;37.674;2023-03-04T03:29:35;97634.59;;;-2.00;90.92
69622;BME280;56841;55.964;37.674;2023-03-04T03:32:01;97640.31;;;-2.06;91.71
69622;BME280;56841;55.964;37.674;2023-03-04T03:34:27;97631.19;;;-2.10;92.39
69622;BME280;56841;55.964;37.674;2023-03-04T03:36:53;97641.53;;;-2.10;93.26
69622;BME280;56841;55.964;37.674;2023-03-04T03:39:18;97636.66;;;-2.03;93.02
69622;BME280;56841;55.964;37.674;2023-03-04T03:41:44;97633.38;;;-2.05;93.25
69622;BME280;56841;55.964;37.674;2023-03-04T03:44:10;97633.25;;;-2.04;93.35
69622;BME280;56841;55.964;37.674;2023-03-04T03:46:35;97632.81;;;-1.89;92.63
69622;BME280;56841;55.964;37.674;2023-03-04T03:49:01;97632.00;;;-2.00;92.85
69622;BME280;56841;55.964;37.674;2023-03-04T03:51:26;97627.25;;;-2.04;93.21
69622;BME280;56841;55.964;37.674;2023-03-04T03:53:52;97621.66;;;-2.09;93.79
69622;BME280;56841;55.964;37.674;2023-03-04T03:56:18;97622.47;;;-2.09;93.56
69622;BME280;56841;55.964;37.674;2023-03-04T03:58:43;97614.34;;;-2.04;93.58
69622;BME280;56841;55.964;37.674;2023-03-04T04:01:09;97615.41;;;-2.07;93.92
69622;BME280;56841;55.964;37.674;2023-03-04T04:03:35;97614.44;;;-2.06;93.89
69622;BME280;56841;55.964;37.674;2023-03-04T04:06:00;97598.94;;;-2.06;93.36
69622;BME280;56841;55.964;37.674;2023-03-04T04:08:26;97592.41;;;-2.00;92.95
69622;BME280;56841;55.964;37.674;2023-03-04T04:10:52;97592.78;;;-1.95;92.89
69622;BME280;56841;55.964;37.674;2023-03-04T04:13:17;97592.69;;;-1.94;92.44
69622;BME280;56841;55.964;37.674;2023-03-04T04:15:43;97583.13;;;-1.93;92.55
69622;BME280;56841;55.964;37.674;2023-03-04T04:18:09;97584.53;;;-2.08;91.95
69622;BME280;56841;55.964;37.674;2023-03-04T04:20:35;97578.25;;;-2.06;91.81
69622;BME280;56841;55.964;37.674;2023-03-04T04:23:01;97580.19;;;-2.08;91.88
69622;BME280;56841;55.964;37.674;2023-03-04T04:25:27;97566.66;;;-2.02;91.69
69622;BME280;56841;55.964;37.674;2023-03-04T04:27:53;97568.44;;;-2.02;91.97
69622;BME280;56841;55.964;37.674;2023-03-04T04:30:19;97561.81;;;-2.05;92.54
69622;BME280;56841;55.964;37.674;2023-03-04T04:32:44;97572.69;;;-2.01;91.98
69622;BME280;56841;55.964;37.674;2023-03-04T04:35:10;97567.91;;;-2.06;92.21
69622;BME280;56841;55.964;37.674;2023-03-04T04:37:35;97570.50;;;-2.06;91.55
69622;BME280;56841;55.964;37.674;2023-03-04T04:40:01;97573.06;;;-1.96;91.01
69622;BME280;56841;55.964;37.674;2023-03-04T04:42:28;97572.94;;;-1.95;90.82
69622;BME280;56841;55.964;37.674;2023-03-04T04:44:53;97572.78;;;-1.93;90.46
69622;BME280;56841;55.964;37.674;2023-03-04T04:47:21;97574.28;;;-1.91;90.44
69622;BME280;56841;55.964;37.674;2023-03-04T04:49:46;97563.28;;;-2.12;90.56
69622;BME280;56841;55.964;37.674;2023-03-04T04:52:12;97573.22;;;-2.27;92.00
69622;BME280;56841;55.964;37.674;2023-03-04T04:54:38;97565.09;;;-2.42;93.58
69622;BME280;56841;55.964;37.674;2023-03-04T04:57:03;97569.28;;;-2.50;94.24
69622;BME280;56841;55.964;37.674;2023-03-04T04:59:29;97567.81;;;-2.53;95.14
69622;BME280;56841;55.964;37.674;2023-03-04T05:01:55;97572.03;;;-2.42;94.88
69622;BME280;56841;55.964;37.674;2023-03-04T05:04:21;97567.25;;;-2.37;94.88
69622;BME280;56841;55.964;37.674;2023-03-04T05:06:46;97555.13;;;-2.36;94.52
69622;BME280;56841;55.964;37.674;2023-03-04T05:09:12;97566.59;;;-2.39;94.83
69622;BME280;56841;55.964;37.674;2023-03-04T05:11:38;97568.75;;;-2.34;94.62
69622;BME280;56841;55.964;37.674;2023-03-04T05:14:03;97573.91;;;-2.44;94.65
69622;BME280;56841;55.964;37.674;2023-03-04T05:16:29;97574.47;;;-2.50;95.60
69622;BME280;56841;55.964;37.674;2023-03-04T05:18:55;97569.03;;;-2.38;95.68
69622;BME280;56841;55.964;37.674;2023-03-04T05:21:20;97578.94;;;-2.13;94.27
69622;BME280;56841;55.964;37.674;2023-03-04T05:23:46;97562.72;;;-2.06;93.45
69622;BME280;56841;55.964;37.674;2023-03-04T05:26:15;97557.97;;;-2.01;92.83
69622;BME280;56841;55.964;37.674;2023-03-04T05:28:42;97559.47;;;-1.98;92.53
69622;BME280;56841;55.964;37.674;2023-03-04T05:31:08;97563.16;;;-2.01;92.17
69622;BME280;56841;55.964;37.674;2023-03-04T05:33:34;97562.34;;;-2.11;92.88
69622;BME280;56841;55.964;37.674;2023-03-04T05:36:02;97559.88;;;-2.03;92.86
69622;BME280;56841;55.964;37.674;2023-03-04T05:38:28;97559.59;;;-2.00;92.69
69622;BME280;56841;55.964;37.674;2023-03-04T05:40:55;97558.09;;;-1.93;92.52
69622;BME280;56841;55.964;37.674;2023-03-04T05:43:21;97546.22;;;-1.85;91.81
69622;BME280;56841;55.964;37.674;2023-03-04T05:45:48;97554.16;;;-1.97;92.43
69622;BME280;56841;55.964;37.674;2023-03-04T05:48:14;97548.34;;;-1.71;91.75
69622;BME280;56841;55.964;37.674;2023-03-04T05:50:40;97547.69;;;-1.63;90.87
69622;BME280;56841;55.964;37.674;2023-03-04T05:53:06;97540.31;;;-1.68;90.43
69622;BME280;56841;55.964;37.674;2023-03-04T05:55:31;97538.47;;;-1.48;89.54
69622;BME280;56841;55.964;37.674;2023-03-04T05:57:57;97537.16;;;-1.25;88.58
69622;BME280;56841;55.964;37.674;2023-03-04T06:00:24;97531.91;;;-1.15;87.34
69622;BME280;56841;55.964;37.674;2023-03-04T06:02:50;97534.78;;;-0.90;85.94
69622;BME280;56841;55.964;37.674;2023-03-04T06:05:16;97540.06;;;-0.64;84.27
69622;BME280;56841;55.964;37.674;2023-03-04T06:07:42;97529.81;;;-0.48;82.71
69622;BME280;56841;55.964;37.674;2023-03-04T06:10:09;97528.88;;;-0.65;82.81
69622;BME280;56841;55.964;37.674;2023-03-04T06:12:35;97528.56;;;-0.80;83.36
69622;BME280;56841;55.964;37.674;2023-03-04T06:15:01;97525.69;;;-0.59;83.50
69622;BME280;56841;55.964;37.674;2023-03-04T06:17:29;97526.78;;;-0.43;82.24
69622;BME280;56841;55.964;37.674;2023-03-04T06:19:55;97527.44;;;-0.23;81.42
69622;BME280;56841;55.964;37.674;2023-03-04T06:22:20;97515.97;;;-0.39;81.40
69622;BME280;56841;55.964;37.674;2023-03-04T06:24:46;97516.84;;;-0.48;81.64
69622;BME280;56841;55.964;37.674;2023-03-04T06:27:12;97525.19;;;-0.44;81.64
69622;BME280;56841;55.964;37.674;2023-03-04T06:29:38;97511.31;;;-0.53;82.10
69622;BME280;56841;55.964;37.674;2023-03-04T06:32:04;97512.38;;;-0.64;82.05
69622;BME280;56841;55.964;37.674;2023-03-04T06:34:30;97514.44;;;-0.50;82.33
69622;BME280;56841;55.964;37.674;2023-03-04T06:36:55;97510.13;;;-0.59;82.38
69622;BME280;56841;55.964;37.674;2023-03-04T06:39:21;97512.81;;;-0.51;82.09
69622;BME280;56841;55.964;37.674;2023-03-04T06:41:47;97504.63;;;-0.20;81.06
69622;BME280;56841;55.964;37.674;2023-03-04T06:44:13;97502.19;;;-0.39;80.63
69622;BME280;56841;55.964;37.674;2023-03-04T06:46:38;97497.97;;;-0.40;80.56
69622;BME280;56841;55.964;37.674;2023-03-04T06:49:04;97494.88;;;-0.44;80.10
69622;BME280;56841;55.964;37.674;2023-03-04T06:51:30;97491.69;;;-0.56;80.47
69622;BME280;56841;55.964;37.674;2023-03-04T06:53:56;97493.16;;;-0.35;80.02
69622;BME280;56841;55.964;37.674;2023-03-04T06:56:22;97486.69;;;-0.31;79.57
69622;BME280;56841;55.964;37.674;2023-03-04T06:58:48;97492.09;;;-0.25;79.82
69622;BME280;56841;55.964;37.674;2023-03-04T07:01:16;97486.91;;;-0.25;79.93
69622;BME280;56841;55.964;37.674;2023-03-04T07:03:43;97481.66;;;-0.33;80.10
69622;BME280;56841;55.964;37.674;2023-03-04T07:06:14;97472.69;;;-0.38;80.45
69622;BME280;56841;55.964;37.674;2023-03-04T07:08:41;97478.56;;;-0.36;80.93
69622;BME280;56841;55.964;37.674;2023-03-04T07:11:07;97471.75;;;-0.37;80.53
69622;BME280;56841;55.964;37.674;2023-03-04T07:13:34;97470.19;;;-0.30;80.32
69622;BME280;56841;55.964;37.674;2023-03-04T07:16:07;97480.81;;;-0.15;79.59
69622;BME280;56841;55.964;37.674;2023-03-04T07:18:34;97468.28;;;0.06;78.65
69622;BME280;56841;55.964;37.674;2023-03-04T07:21:00;97459.16;;;0.28;77.92
69622;BME280;56841;55.964;37.674;2023-03-04T07:23:26;97455.53;;;0.55;76.87
69622;BME280;56841;55.964;37.674;2023-03-04T07:25:52;97454.94;;;0.69;75.97
69622;BME280;56841;55.964;37.674;2023-03-04T07:28:18;97447.69;;;0.89;75.07
69622;BME280;56841;55.964;37.674;2023-03-04T07:30:44;97445.13;;;1.38;74.10
69622;BME280;56841;55.964;37.674;2023-03-04T07:33:12;97433.56;;;1.49;72.65
69622;BME280;56841;55.964;37.674;2023-03-04T07:35:39;97438.94;;;1.48;72.15
69622;BME280;56841;55.964;37.674;2023-03-04T07:38:04;97425.13;;;1.39;71.58
69622;BME280;56841;55.964;37.674;2023-03-04T07:40:30;97423.66;;;1.45;71.53
69622;BME280;56841;55.964;37.674;2023-03-04T07:42:56;97419.91;;;1.72;70.50
69622;BME280;56841;55.964;37.674;2023-03-04T07:45:23;97417.25;;;1.96;69.42
69622;BME280;56841;55.964;37.674;2023-03-04T07:47:49;97416.44;;;1.96;68.91
69622;BME280;56841;55.964;37.674;2023-03-04T07:50:16;97410.75;;;1.92;69.08
69622;BME280;56841;55.964;37.674;2023-03-04T07:52:44;97402.00;;;1.85;69.20
69622;BME280;56841;55.964;37.674;2023-03-04T07:55:12;97399.53;;;1.83;69.31
69622;BME280;56841;55.964;37.674;2023-03-04T07:57:39;97404.31;;;1.55;70.24
69622;BME280;56841;55.964;37.674;2023-03-04T08:00:05;97398.63;;;1.68;71.00
69622;BME280;56841;55.964;37.674;2023-03-04T08:02:38;97398.75;;;1.75;70.34
69622;BME280;56841;55.964;37.674;2023-03-04T08:05:04;97392.38;;;1.77;70.68
69622;BME280;56841;55.964;37.674;2023-03-04T08:07:30;97394.03;;;1.78;70.54
69622;BME280;56841;55.964;37.674;2023-03-04T08:09:56;97392.72;;;1.74;70.63
69622;BME280;56841;55.964;37.674;2023-03-04T08:12:22;97396.38;;;2.04;70.29
69622;BME280;56841;55.964;37.674;2023-03-04T08:14:49;97394.19;;;2.24;69.28
69622;BME280;56841;55.964;37.674;2023-03-04T08:17:15;97390.84;;;2.16;69.30
69622;BME280;56841;55.964;37.674;2023-03-04T08:19:41;97386.56;;;2.23;69.07
69622;BME280;56841;55.964;37.674;2023-03-04T08:22:07;97383.50;;;2.11;69.45
69622;BME280;56841;55.964;37.674;2023-03-04T08:24:32;97381.75;;;2.03;69.39
69622;BME280;56841;55.964;37.674;2023-03-04T08:26:58;97374.09;;;2.10;69.64
69622;BME280;56841;55.964;37.674;2023-03-04T08:29:24;97376.34;;;2.13;69.70
69622;BME280;56841;55.964;37.674;2023-03-04T08:31:52;97376.03;;;2.08;69.52
69622;BME280;56841;55.964;37.674;2023-03-04T08:34:20;97365.97;;;2.05;69.72
69622;BME280;56841;55.964;37.674;2023-03-04T08:36:46;97366.50;;;2.31;69.66
69622;BME280;56841;55.964;37.674;2023-03-04T08:39:14;97363.09;;;1.92;69.42
69622;BME280;56841;55.964;37.674;2023-03-04T08:41:40;97359.13;;;2.04;70.26
69622;BME280;56841;55.964;37.674;2023-03-04T08:44:07;97353.06;;;2.11;69.85
69622;BME280;56841;55.964;37.674;2023-03-04T08:46:38;97351.59;;;2.17;70.02
69622;BME280;56841;55.964;37.674;2023-03-04T08:49:06;97350.06;;;2.31;70.15
69622;BME280;56841;55.964;37.674;2023-03-04T08:51:34;97341.88;;;2.65;69.44
69622;BME280;56841;55.964;37.674;2023-03-04T08:54:02;97344.84;;;2.62;69.05
69622;BME280;56841;55.964;37.674;2023-03-04T08:56:28;97342.28;;;2.77;68.75
69622;BME280;56841;55.964;37.674;2023-03-04T08:58:54;97338.47;;;2.65;68.63
69622;BME280;56841;55.964;37.674;2023-03-04T09:01:19;97338.88;;;2.53;69.22
69622;BME280;56841;55.964;37.674;2023-03-04T09:03:45;97336.41;;;2.60;69.11
69622;BME280;56841;55.964;37.674;2023-03-04T09:06:15;97331.84;;;2.31;69.91
69622;BME280;56841;55.964;37.674;2023-03-04T09:08:42;97337.16;;;2.06;70.29
69622;BME280;56841;55.964;37.674;2023-03-04T09:11:16;97326.44;;;2.01;70.65
69622;BME280;56841;55.964;37.674;2023-03-04T09:13:42;97318.94;;;2.37;70.45
69622;BME280;56841;55.964;37.674;2023-03-04T09:16:12;97320.06;;;2.12;70.96
69622;BME280;56841;55.964;37.674;2023-03-04T09:18:39;97308.78;;;1.80;72.47
69622;BME280;56841;55.964;37.674;2023-03-04T09:21:05;97309.66;;;1.73;73.25
69622;BME280;56841;55.964;37.674;2023-03-04T09:23:34;97308.59;;;1.90;74.18
69622;BME280;56841;55.964;37.674;2023-03-04T09:25:59;97302.13;;;2.17;74.46
69622;BME280;56841;55.964;37.674;2023-03-04T09:28:25;97296.03;;;2.02;74.17
69622;BME280;56841;55.964;37.674;2023-03-04T09:30:51;97293.78;;;1.99;74.71
69622;BME280;56841;55.964;37.674;2023-03-04T09:33:17;97285.69;;;1.85;74.41
69622;BME280;56841;55.964;37.674;2023-03-04T09:35:43;97281.03;;;2.04;73.31
69622;BME280;56841;55.964;37.674;2023-03-04T09:38:09;97277.97;;;2.31;73.13
69622;BME280;56841;55.964;37.674;2023-03-04T09:40:44;97273.06;;;2.36;72.34
69622;BME280;56841;55.964;37.674;2023-03-04T09:43:21;97265.38;;;2.43;72.36
69622;BME280;56841;55.964;37.674;2023-03-04T09:45:51;97255.97;;;2.57;71.86
69622;BME280;56841;55.964;37.674;2023-03-04T09:48:21;97250.81;;;2.49;71.44
69622;BME280;56841;55.964;37.674;2023-03-04T09:51:01;97251.13;;;2.54;71.54
69622;BME280;56841;55.964;37.674;2023-03-04T09:53:41;97246.84;;;2.76;71.27
69622;BME280;56841;55.964;37.674;2023-03-04T09:56:10;97245.09;;;2.53;70.73
69622;BME280;56841;55.964;37.674;2023-03-04T09:58:57;97240.00;;;2.37;70.27
69622;BME280;56841;55.964;37.674;2023-03-04T10:01:36;97228.31;;;2.10;71.09
69622;BME280;56841;55.964;37.674;2023-03-04T10:04:29;97230.75;;;1.80;72.71
69622;BME280;56841;55.964;37.674;2023-03-04T10:06:57;97227.50;;;1.78;73.01
69622;BME280;56841;55.964;37.674;2023-03-04T10:12:22;97229.31;;;2.01;73.30
69622;BME280;56841;55.964;37.674;2023-03-04T10:14:58;97212.59;;;2.26;72.65
69622;BME280;56841;55.964;37.674;2023-03-04T10:17:37;97214.56;;;2.62;71.96
69622;BME280;56841;55.964;37.674;2023-03-04T10:22:45;97205.72;;;2.86;69.28
69622;BME280;56841;55.964;37.674;2023-03-04T10:25:26;97194.84;;;2.45;69.76
69622;BME280;56841;55.964;37.674;2023-03-04T10:27:56;97199.97;;;2.53;70.07
69622;BME280;56841;55.964;37.674;2023-03-04T10:33:19;97189.13;;;3.02;67.56
69622;BME280;56841;55.964;37.674;2023-03-04T10:36:16;97183.56;;;3.05;67.14
69622;BME280;56841;55.964;37.674;2023-03-04T10:38:36;97175.38;;;3.08;67.80
69622;BME280;56841;55.964;37.674;2023-03-04T10:41:19;97182.09;;;3.17;66.24
69622;BME280;56841;55.964;37.674;2023-03-04T10:46:38;97158.72;;;2.79;67.26
69622;BME280;56841;55.964;37.674;2023-03-04T10:49:05;97158.34;;;2.82;67.52
69622;BME280;56841;55.964;37.674;2023-03-04T10:51:31;97156.22;;;3.01;66.75
69622;BME280;56841;55.964;37.674;2023-03-04T10:54:05;97153.06;;;3.20;66.18
69622;BME280;56841;55.964;37.674;2023-03-04T10:59:43;97131.59;;;3.54;64.52
69622;BME280;56841;55.964;37.674;2023-03-04T11:02:37;97124.72;;;3.17;65.25
69622;BME280;56841;55.964;37.674;2023-03-04T11:07:36;97112.97;;;3.06;65.84
69622;BME280;56841;55.964;37.674;2023-03-04T11:13:24;97111.09;;;3.51;63.67
69622;BME280;56841;55.964;37.674;2023-03-04T11:18:40;97108.19;;;3.61;62.86
69622;BME280;56841;55.964;37.674;2023-03-04T11:21:24;97094.16;;;3.11;63.99
69622;BME280;56841;55.964;37.674;2023-03-04T11:24:08;97093.91;;;2.76;65.87
69622;BME280;56841;55.964;37.674;2023-03-04T11:26:45;97093.19;;;2.97;65.23
69622;BME280;56841;55.964;37.674;2023-03-04T11:34:53;97087.34;;;2.51;67.39
69622;BME280;56841;55.964;37.674;2023-03-04T11:37:49;97076.41;;;2.55;66.37
69622;BME280;56841;55.964;37.674;2023-03-04T11:40:22;97075.19;;;2.28;67.60
69622;BME280;56841;55.964;37.674;2023-03-04T11:42:54;97071.28;;;2.62;68.42
69622;BME280;56841;55.964;37.674;2023-03-04T11:51:47;97054.38;;;2.73;66.23
69622;BME280;56841;55.964;37.674;2023-03-04T11:54:22;97060.31;;;2.67;66.57
69622;BME280;56841;55.964;37.674;2023-03-04T11:56:58;97052.25;;;2.61;67.97
69622;BME280;56841;55.964;37.674;2023-03-04T12:02:21;97051.69;;;2.81;68.36
69622;BME280;56841;55.964;37.674;2023-03-04T12:18:33;97036.38;;;2.19;74.81
69622;BME280;56841;55.964;37.674;2023-03-04T12:24:19;97021.22;;;2.22;76.96
69622;BME280;56841;55.964;37.674;2023-03-04T12:27:19;97022.06;;;2.37;76.65
69622;BME280;56841;55.964;37.674;2023-03-04T12:30:15;97019.53;;;2.59;76.98
69622;BME280;56841;55.964;37.674;2023-03-04T12:33:11;97007.22;;;2.53;77.17
69622;BME280;56841;55.964;37.674;2023-03-04T12:35:52;97005.00;;;2.50;77.74
69622;BME280;56841;55.964;37.674;2023-03-04T12:41:24;96991.44;;;2.40;77.96
69622;BME280;56841;55.964;37.674;2023-03-04T12:43:59;96992.97;;;2.34;79.31
69622;BME280;56841;55.964;37.674;2023-03-04T12:46:35;96999.16;;;2.33;78.91
69622;BME280;56841;55.964;37.674;2023-03-04T12:54:43;96973.38;;;2.23;80.69
69622;BME280;56841;55.964;37.674;2023-03-04T12:57:16;96976.97;;;2.37;81.78
69622;BME280;56841;55.964;37.674;2023-03-04T13:10:46;96954.97;;;2.25;82.40
69622;BME280;56841;55.964;37.674;2023-03-04T13:13:39;96945.47;;;2.17;82.56
69622;BME280;56841;55.964;37.674;2023-03-04T13:18:38;96943.13;;;2.22;82.61
69622;BME280;56841;55.964;37.674;2023-03-04T13:21:20;96946.09;;;2.19;82.63
69622;BME280;56841;55.964;37.674;2023-03-04T13:23:47;96936.84;;;2.17;82.28
69622;BME280;56841;55.964;37.674;2023-03-04T13:28:42;96936.03;;;2.01;82.65
69622;BME280;56841;55.964;37.674;2023-03-04T13:36:02;96923.84;;;2.02;82.95
69622;BME280;56841;55.964;37.674;2023-03-04T13:43:40;96906.16;;;1.82;83.77
69622;BME280;56841;55.964;37.674;2023-03-04T13:51:35;96895.09;;;1.80;84.44
69622;BME280;56841;55.964;37.674;2023-03-04T13:56:38;96887.03;;;1.75;84.73
69622;BME280;56841;55.964;37.674;2023-03-04T14:04:15;96876.53;;;1.83;84.60
69622;BME280;56841;55.964;37.674;2023-03-04T14:06:43;96878.44;;;1.75;85.14
69622;BME280;56841;55.964;37.674;2023-03-04T14:09:23;96869.44;;;1.77;85.06
69622;BME280;56841;55.964;37.674;2023-03-04T14:11:50;96868.63;;;1.77;85.84
69622;BME280;56841;55.964;37.674;2023-03-04T14:14:26;96860.38;;;1.73;85.87
69622;BME280;56841;55.964;37.674;2023-03-04T14:17:01;96861.53;;;1.71;85.46
69622;BME280;56841;55.964;37.674;2023-03-04T14:19:30;96855.19;;;1.58;85.80
69622;BME280;56841;55.964;37.674;2023-03-04T14:22:00;96854.13;;;1.68;86.28
69622;BME280;56841;55.964;37.674;2023-03-04T14:24:26;96850.44;;;1.62;85.73
69622;BME280;56841;55.964;37.674;2023-03-04T14:27:12;96847.63;;;1.63;86.47
69622;BME280;56841;55.964;37.674;2023-03-04T14:29:38;96840.03;;;1.62;86.65
69622;BME280;56841;55.964;37.674;2023-03-04T14:32:05;96842.28;;;1.65;86.33
69622;BME280;56841;55.964;37.674;2023-03-04T14:34:36;96837.88;;;1.51;86.26
69622;BME280;56841;55.964;37.674;2023-03-04T14:37:28;96841.09;;;1.53;86.38
69622;BME280;56841;55.964;37.674;2023-03-04T14:40:07;96828.78;;;1.47;86.49
69622;BME280;56841;55.964;37.674;2023-03-04T14:42:40;96823.69;;;1.53;87.18
69622;BME280;56841;55.964;37.674;2023-03-04T14:45:13;96824.69;;;1.52;86.81
69622;BME280;56841;55.964;37.674;2023-03-04T14:47:43;96816.69;;;1.39;86.94
69622;BME280;56841;55.964;37.674;2023-03-04T14:50:17;96822.72;;;1.54;88.15